sensor_id;sensor_type;location;lat;lon;timestamp;pressure;altitude;pressure_sealevel;temperature;humidity
81033;BME280;70514;52.478;6.102;2023-06-22T00:02:26;102082.72;;;24.29;46.95
81033;BME280;70514;52.478;6.102;2023-06-22T00:04:52;102075.81;;;24.25;46.87
81033;BME280;70514;52.478;6.102;2023-06-22T00:07:19;102075.88;;;24.22;47.27
81033;BME280;70514;52.478;6.102;2023-06-22T00:09:45;102077.44;;;24.29;46.90
81033;BME280;70514;52.478;6.102;2023-06-22T00:12:12;102066.75;;;24.35;46.85
81033;BME280;70514;52.478;6.102;2023-06-22T00:14:38;102057.91;;;24.36;47.35
81033;BME280;70514;52.478;6.102;2023-06-22T00:17:05;102044.16;;;24.26;47.13
81033;BME280;70514;52.478;6.102;2023-06-22T00:19:31;102072.66;;;24.41;47.29
81033;BME280;70514;52.478;6.102;2023-06-22T00:21:59;102076.13;;;24.43;46.82
81033;BME280;70514;52.478;6.102;2023-06-22T00:24:26;102056.84;;;24.43;46.82
81033;BME280;70514;52.478;6.102;2023-06-22T00:26:53;102058.47;;;24.47;47.42
81033;BME280;70514;52.478;6.102;2023-06-22T00:29:19;102062.00;;;24.46;47.26
81033;BME280;70514;52.478;6.102;2023-06-22T00:31:48;102054.16;;;24.44;47.04
81033;BME280;70514;52.478;6.102;2023-06-22T00:34:14;102058.53;;;24.45;47.21
81033;BME280;70514;52.478;6.102;2023-06-22T00:36:42;102062.94;;;24.45;47.40
81033;BME280;70514;52.478;6.102;2023-06-22T00:39:08;102063.25;;;24.34;46.89
81033;BME280;70514;52.478;6.102;2023-06-22T00:41:36;102056.31;;;24.30;47.53
81033;BME280;70514;52.478;6.102;2023-06-22T00:44:02;102034.88;;;24.13;47.04
81033;BME280;70514;52.478;6.102;2023-06-22T00:46:29;102062.56;;;24.28;47.25
81033;BME280;70514;52.478;6.102;2023-06-22T00:48:56;102033.00;;;24.17;47.15
81033;BME280;70514;52.478;6.102;2023-06-22T00:51:23;102029.41;;;24.21;47.02
81033;BME280;70514;52.478;6.102;2023-06-22T00:53:51;102034.50;;;24.27;47.07
81033;BME280;70514;52.478;6.102;2023-06-22T00:56:19;102044.88;;;24.31;47.53
81033;BME280;70514;52.478;6.102;2023-06-22T00:58:51;102036.97;;;24.31;47.64
81033;BME280;70514;52.478;6.102;2023-06-22T01:01:19;102038.75;;;24.31;47.11
81033;BME280;70514;52.478;6.102;2023-06-22T01:03:50;102020.00;;;24.10;47.18
81033;BME280;70514;52.478;6.102;2023-06-22T01:06:23;102046.06;;;24.21;47.23
81033;BME280;70514;52.478;6.102;2023-06-22T01:09:04;102046.75;;;24.28;47.53
81033;BME280;70514;52.478;6.102;2023-06-22T01:11:37;102036.13;;;24.31;47.46
81033;BME280;70514;52.478;6.102;2023-06-22T01:14:28;102036.06;;;24.34;47.47
81033;BME280;70514;52.478;6.102;2023-06-22T01:17:00;102031.50;;;24.39;47.02
81033;BME280;70514;52.478;6.102;2023-06-22T01:19:49;102033.31;;;24.37;46.86
81033;BME280;70514;52.478;6.102;2023-06-22T01:22:20;102036.59;;;24.45;46.87
81033;BME280;70514;52.478;6.102;2023-06-22T01:25:13;102013.97;;;24.38;47.27
81033;BME280;70514;52.478;6.102;2023-06-22T01:30:33;102046.69;;;24.59;46.98
81033;BME280;70514;52.478;6.102;2023-06-22T01:33:06;102045.94;;;24.55;47.26
81033;BME280;70514;52.478;6.102;2023-06-22T01:35:33;102016.03;;;24.28;47.24
81033;BME280;70514;52.478;6.102;2023-06-22T01:38:00;102037.06;;;24.30;47.90
81033;BME280;70514;52.478;6.102;2023-06-22T01:40:27;102042.63;;;24.19;47.60
81033;BME280;70514;52.478;6.102;2023-06-22T01:42:55;102009.94;;;23.95;47.50
81033;BME280;70514;52.478;6.102;2023-06-22T01:45:22;102033.25;;;24.09;48.07
81033;BME280;70514;52.478;6.102;2023-06-22T01:47:49;102036.66;;;24.11;47.58
81033;BME280;70514;52.478;6.102;2023-06-22T01:50:16;102042.06;;;24.06;48.29
81033;BME280;70514;52.478;6.102;2023-06-22T01:52:42;102040.50;;;23.99;47.99
81033;BME280;70514;52.478;6.102;2023-06-22T01:55:09;102038.91;;;23.94;48.23
81033;BME280;70514;52.478;6.102;2023-06-22T01:57:36;102010.50;;;23.76;48.23
81033;BME280;70514;52.478;6.102;2023-06-22T02:00:07;102035.63;;;23.86;48.12
81033;BME280;70514;52.478;6.102;2023-06-22T02:02:39;102021.72;;;23.82;48.21
81033;BME280;70514;52.478;6.102;2023-06-22T02:05:08;102031.25;;;23.86;48.71
81033;BME280;70514;52.478;6.102;2023-06-22T02:07:46;102031.34;;;23.83;48.26
81033;BME280;70514;52.478;6.102;2023-06-22T02:10:16;102018.06;;;23.88;48.37
81033;BME280;70514;52.478;6.102;2023-06-22T02:12:47;102021.41;;;23.93;48.19
81033;BME280;70514;52.478;6.102;2023-06-22T02:15:14;102022.19;;;23.96;48.55
81033;BME280;70514;52.478;6.102;2023-06-22T02:17:42;102025.59;;;24.00;48.51
81033;BME280;70514;52.478;6.102;2023-06-22T02:20:15;102000.56;;;23.85;48.38
81033;BME280;70514;52.478;6.102;2023-06-22T02:22:42;102001.53;;;23.83;48.29
81033;BME280;70514;52.478;6.102;2023-06-22T02:25:08;102013.69;;;23.87;48.55
81033;BME280;70514;52.478;6.102;2023-06-22T02:27:35;102019.84;;;23.86;47.93
81033;BME280;70514;52.478;6.102;2023-06-22T02:30:02;102012.97;;;23.82;48.68
81033;BME280;70514;52.478;6.102;2023-06-22T02:32:28;102014.03;;;23.75;48.65
81033;BME280;70514;52.478;6.102;2023-06-22T02:34:55;102022.94;;;23.69;49.06
81033;BME280;70514;52.478;6.102;2023-06-22T02:37:21;101993.63;;;23.52;48.90
81033;BME280;70514;52.478;6.102;2023-06-22T02:39:51;101985.03;;;23.44;48.92
81033;BME280;70514;52.478;6.102;2023-06-22T02:42:18;102019.72;;;23.58;48.78
81033;BME280;70514;52.478;6.102;2023-06-22T02:44:47;102024.09;;;23.59;48.72
81033;BME280;70514;52.478;6.102;2023-06-22T02:47:14;101989.44;;;23.43;49.23
81033;BME280;70514;52.478;6.102;2023-06-22T02:49:40;102010.22;;;23.54;48.82
81033;BME280;70514;52.478;6.102;2023-06-22T02:52:08;102000.44;;;23.59;48.61
81033;BME280;70514;52.478;6.102;2023-06-22T02:54:34;102014.31;;;23.64;49.03
81033;BME280;70514;52.478;6.102;2023-06-22T02:57:01;102012.56;;;23.64;49.03
81033;BME280;70514;52.478;6.102;2023-06-22T02:59:30;102022.31;;;23.61;48.83
81033;BME280;70514;52.478;6.102;2023-06-22T03:01:59;101991.19;;;23.43;48.87
81033;BME280;70514;52.478;6.102;2023-06-22T03:04:27;102022.47;;;23.55;48.83
81033;BME280;70514;52.478;6.102;2023-06-22T03:06:53;102019.13;;;23.48;49.40
81033;BME280;70514;52.478;6.102;2023-06-22T03:09:20;102020.00;;;23.47;49.72
81033;BME280;70514;52.478;6.102;2023-06-22T03:11:46;102016.47;;;23.50;49.33
81033;BME280;70514;52.478;6.102;2023-06-22T03:14:13;102012.94;;;23.51;49.34
81033;BME280;70514;52.478;6.102;2023-06-22T03:16:40;101995.81;;;23.33;49.71
81033;BME280;70514;52.478;6.102;2023-06-22T03:19:07;102013.97;;;23.42;49.67
81033;BME280;70514;52.478;6.102;2023-06-22T03:21:34;102008.84;;;23.38;50.02
81033;BME280;70514;52.478;6.102;2023-06-22T03:24:01;101980.44;;;23.19;49.63
81033;BME280;70514;52.478;6.102;2023-06-22T03:26:27;102015.84;;;23.39;49.73
81033;BME280;70514;52.478;6.102;2023-06-22T03:28:54;102014.06;;;23.39;49.79
81033;BME280;70514;52.478;6.102;2023-06-22T03:31:21;102024.50;;;23.42;49.92
81033;BME280;70514;52.478;6.102;2023-06-22T03:33:51;102006.94;;;23.46;49.38
81033;BME280;70514;52.478;6.102;2023-06-22T03:36:18;102013.72;;;23.53;49.26
81033;BME280;70514;52.478;6.102;2023-06-22T03:38:48;101989.41;;;23.45;49.70
81033;BME280;70514;52.478;6.102;2023-06-22T03:41:15;102022.31;;;23.61;49.51
81033;BME280;70514;52.478;6.102;2023-06-22T03:43:42;102022.31;;;23.61;49.67
81033;BME280;70514;52.478;6.102;2023-06-22T03:46:09;102022.38;;;23.58;50.23
81033;BME280;70514;52.478;6.102;2023-06-22T03:48:35;102025.91;;;23.57;49.65
81033;BME280;70514;52.478;6.102;2023-06-22T03:51:02;102010.94;;;23.59;49.83
81033;BME280;70514;52.478;6.102;2023-06-22T03:53:32;101997.06;;;23.54;49.85
81033;BME280;70514;52.478;6.102;2023-06-22T03:55:58;102011.78;;;23.61;49.74
81033;BME280;70514;52.478;6.102;2023-06-22T03:58:25;101996.16;;;23.55;49.56
81033;BME280;70514;52.478;6.102;2023-06-22T04:00:52;101999.44;;;23.63;49.82
81033;BME280;70514;52.478;6.102;2023-06-22T04:03:19;102011.41;;;23.75;49.74
81033;BME280;70514;52.478;6.102;2023-06-22T04:05:47;101962.69;;;23.61;49.10
81033;BME280;70514;52.478;6.102;2023-06-22T04:08:14;102001.09;;;23.98;48.81
81033;BME280;70514;52.478;6.102;2023-06-22T04:10:41;102001.72;;;24.06;49.07
81033;BME280;70514;52.478;6.102;2023-06-22T04:13:07;101979.25;;;23.94;48.92
81033;BME280;70514;52.478;6.102;2023-06-22T04:15:34;102014.72;;;24.12;49.43
81033;BME280;70514;52.478;6.102;2023-06-22T04:18:01;102017.38;;;24.10;48.90
81033;BME280;70514;52.478;6.102;2023-06-22T04:20:28;102020.84;;;24.12;48.89
81033;BME280;70514;52.478;6.102;2023-06-22T04:22:55;101991.25;;;24.04;48.95
81033;BME280;70514;52.478;6.102;2023-06-22T04:25:23;102001.41;;;24.17;49.22
81033;BME280;70514;52.478;6.102;2023-06-22T04:27:50;102005.63;;;24.24;48.80
81033;BME280;70514;52.478;6.102;2023-06-22T04:30:17;102000.19;;;24.30;48.83
81033;BME280;70514;52.478;6.102;2023-06-22T04:32:44;101990.03;;;24.18;48.68
81033;BME280;70514;52.478;6.102;2023-06-22T04:35:11;101999.47;;;24.25;48.82
81033;BME280;70514;52.478;6.102;2023-06-22T04:37:38;102001.16;;;24.26;48.82
81033;BME280;70514;52.478;6.102;2023-06-22T04:40:06;101995.91;;;24.26;49.20
81033;BME280;70514;52.478;6.102;2023-06-22T04:42:34;101998.47;;;24.29;48.57
81033;BME280;70514;52.478;6.102;2023-06-22T04:45:01;101998.31;;;24.33;48.49
81033;BME280;70514;52.478;6.102;2023-06-22T04:47:28;101986.75;;;24.39;48.19
81033;BME280;70514;52.478;6.102;2023-06-22T04:49:55;101967.53;;;24.35;47.93
81033;BME280;70514;52.478;6.102;2023-06-22T04:52:21;101963.84;;;24.41;48.41
81033;BME280;70514;52.478;6.102;2023-06-22T04:54:49;101990.53;;;24.58;48.15
81033;BME280;70514;52.478;6.102;2023-06-22T04:57:17;101987.69;;;24.64;47.71
81033;BME280;70514;52.478;6.102;2023-06-22T04:59:43;101992.06;;;24.65;48.26
81033;BME280;70514;52.478;6.102;2023-06-22T05:02:10;101986.84;;;24.64;48.11
81033;BME280;70514;52.478;6.102;2023-06-22T05:04:37;101991.16;;;24.66;48.10
81033;BME280;70514;52.478;6.102;2023-06-22T05:07:06;101980.50;;;24.69;48.12
81033;BME280;70514;52.478;6.102;2023-06-22T05:09:33;101976.91;;;24.72;48.29
81033;BME280;70514;52.478;6.102;2023-06-22T05:12:02;101964.59;;;24.72;47.62
81033;BME280;70514;52.478;6.102;2023-06-22T05:14:33;101984.47;;;24.82;47.65
81033;BME280;70514;52.478;6.102;2023-06-22T05:16:59;101986.34;;;24.79;47.99
81033;BME280;70514;52.478;6.102;2023-06-22T05:19:30;101980.31;;;24.75;47.85
81033;BME280;70514;52.478;6.102;2023-06-22T05:22:00;101991.66;;;24.77;47.78
81033;BME280;70514;52.478;6.102;2023-06-22T05:24:27;101990.88;;;24.75;47.78
81033;BME280;70514;52.478;6.102;2023-06-22T05:26:53;102005.69;;;24.78;47.56
81033;BME280;70514;52.478;6.102;2023-06-22T05:29:20;101999.66;;;24.74;48.17
81033;BME280;70514;52.478;6.102;2023-06-22T05:31:49;101995.25;;;24.75;47.56
81033;BME280;70514;52.478;6.102;2023-06-22T05:34:15;101992.38;;;24.82;47.36
81033;BME280;70514;52.478;6.102;2023-06-22T05:36:42;101982.75;;;24.81;47.62
81033;BME280;70514;52.478;6.102;2023-06-22T05:39:12;101987.91;;;24.84;47.22
81033;BME280;70514;52.478;6.102;2023-06-22T05:41:42;101995.75;;;24.87;47.34
81033;BME280;70514;52.478;6.102;2023-06-22T05:44:09;101998.31;;;24.90;47.38
81033;BME280;70514;52.478;6.102;2023-06-22T05:46:36;101992.06;;;24.93;47.44
81033;BME280;70514;52.478;6.102;2023-06-22T05:49:03;101980.59;;;24.94;47.28
81033;BME280;70514;52.478;6.102;2023-06-22T05:51:30;101988.06;;;25.08;47.18
81033;BME280;70514;52.478;6.102;2023-06-22T05:53:56;101995.59;;;25.18;47.16
81033;BME280;70514;52.478;6.102;2023-06-22T05:56:23;101999.50;;;25.33;46.76
81033;BME280;70514;52.478;6.102;2023-06-22T05:58:50;102002.59;;;25.44;46.89
81033;BME280;70514;52.478;6.102;2023-06-22T06:01:16;101981.50;;;25.44;46.64
81033;BME280;70514;52.478;6.102;2023-06-22T06:03:43;102010.88;;;25.60;46.34
81033;BME280;70514;52.478;6.102;2023-06-22T06:06:10;102012.38;;;25.67;46.01
81033;BME280;70514;52.478;6.102;2023-06-22T06:08:40;102000.19;;;25.64;46.42
81033;BME280;70514;52.478;6.102;2023-06-22T06:11:07;101990.72;;;25.59;46.44
81033;BME280;70514;52.478;6.102;2023-06-22T06:13:34;102006.09;;;25.71;46.43
81033;BME280;70514;52.478;6.102;2023-06-22T06:16:00;102005.66;;;25.83;46.15
81033;BME280;70514;52.478;6.102;2023-06-22T06:18:27;102006.16;;;25.93;45.59
81033;BME280;70514;52.478;6.102;2023-06-22T06:20:54;101993.69;;;25.96;45.66
81033;BME280;70514;52.478;6.102;2023-06-22T06:23:20;101979.91;;;25.90;45.78
81033;BME280;70514;52.478;6.102;2023-06-22T06:25:47;102006.50;;;26.07;45.81
81033;BME280;70514;52.478;6.102;2023-06-22T06:28:14;102008.19;;;26.09;45.64
81033;BME280;70514;52.478;6.102;2023-06-22T06:30:40;102008.91;;;26.13;45.30
81033;BME280;70514;52.478;6.102;2023-06-22T06:33:07;102004.31;;;26.18;45.13
81033;BME280;70514;52.478;6.102;2023-06-22T06:35:35;101996.94;;;26.28;45.29
81033;BME280;70514;52.478;6.102;2023-06-22T06:38:02;102008.31;;;26.30;45.22
81033;BME280;70514;52.478;6.102;2023-06-22T06:40:29;102002.41;;;26.23;45.11
81033;BME280;70514;52.478;6.102;2023-06-22T06:42:56;102008.75;;;26.17;45.63
81033;BME280;70514;52.478;6.102;2023-06-22T06:45:24;102000.94;;;26.14;45.52
81033;BME280;70514;52.478;6.102;2023-06-22T06:47:52;101999.03;;;26.18;45.28
81033;BME280;70514;52.478;6.102;2023-06-22T06:50:19;101980.19;;;26.05;45.10
81033;BME280;70514;52.478;6.102;2023-06-22T06:52:46;102014.03;;;26.17;45.61
81033;BME280;70514;52.478;6.102;2023-06-22T06:55:12;101980.28;;;26.02;45.33
81033;BME280;70514;52.478;6.102;2023-06-22T06:57:40;101975.78;;;26.06;45.61
81033;BME280;70514;52.478;6.102;2023-06-22T07:00:09;101996.06;;;26.27;45.53
81033;BME280;70514;52.478;6.102;2023-06-22T07:02:39;101997.34;;;26.40;45.06
81033;BME280;70514;52.478;6.102;2023-06-22T07:05:07;101993.47;;;26.49;44.93
81033;BME280;70514;52.478;6.102;2023-06-22T07:07:34;101991.84;;;26.68;44.67
81033;BME280;70514;52.478;6.102;2023-06-22T07:10:05;101975.84;;;26.71;43.96
81033;BME280;70514;52.478;6.102;2023-06-22T07:12:32;101987.63;;;26.84;43.83
81033;BME280;70514;52.478;6.102;2023-06-22T07:15:07;101987.28;;;26.93;43.86
81033;BME280;70514;52.478;6.102;2023-06-22T07:17:35;101955.81;;;26.87;43.47
81033;BME280;70514;52.478;6.102;2023-06-22T07:20:03;101986.50;;;27.12;43.39
81033;BME280;70514;52.478;6.102;2023-06-22T07:22:34;101985.41;;;27.17;43.24
81033;BME280;70514;52.478;6.102;2023-06-22T07:25:01;101968.16;;;27.29;43.14
81033;BME280;70514;52.478;6.102;2023-06-22T07:27:30;101965.16;;;27.36;42.87
81033;BME280;70514;52.478;6.102;2023-06-22T07:30:02;101963.00;;;27.46;42.76
81033;BME280;70514;52.478;6.102;2023-06-22T07:32:29;101958.19;;;27.56;42.85
81033;BME280;70514;52.478;6.102;2023-06-22T07:34:55;101951.00;;;27.58;42.39
81033;BME280;70514;52.478;6.102;2023-06-22T07:37:22;101957.41;;;27.72;42.45
81033;BME280;70514;52.478;6.102;2023-06-22T07:39:49;101965.06;;;27.78;42.09
81033;BME280;70514;52.478;6.102;2023-06-22T07:42:20;101952.25;;;27.88;42.02
81033;BME280;70514;52.478;6.102;2023-06-22T07:44:46;101918.44;;;27.76;41.98
81033;BME280;70514;52.478;6.102;2023-06-22T07:47:13;101954.50;;;27.97;41.95
81033;BME280;70514;52.478;6.102;2023-06-22T07:49:39;101949.06;;;28.00;41.78
81033;BME280;70514;52.478;6.102;2023-06-22T07:52:06;101962.81;;;28.08;41.41
81033;BME280;70514;52.478;6.102;2023-06-22T07:54:33;101964.50;;;28.09;41.23
81033;BME280;70514;52.478;6.102;2023-06-22T07:57:00;101932.38;;;27.98;40.90
81033;BME280;70514;52.478;6.102;2023-06-22T07:59:27;101947.97;;;28.04;41.45
81033;BME280;70514;52.478;6.102;2023-06-22T08:01:55;101948.72;;;28.08;41.26
81033;BME280;70514;52.478;6.102;2023-06-22T08:04:22;101958.44;;;28.07;41.43
81033;BME280;70514;52.478;6.102;2023-06-22T08:06:48;101951.34;;;28.08;41.18
81033;BME280;70514;52.478;6.102;2023-06-22T08:09:15;101940.75;;;28.08;41.44
81033;BME280;70514;52.478;6.102;2023-06-22T08:11:42;101952.53;;;28.21;41.80
81033;BME280;70514;52.478;6.102;2023-06-22T08:14:08;101945.84;;;28.31;41.26
81033;BME280;70514;52.478;6.102;2023-06-22T08:16:35;101950.63;;;28.42;40.83
81033;BME280;70514;52.478;6.102;2023-06-22T08:19:02;101944.88;;;28.51;41.12
81033;BME280;70514;52.478;6.102;2023-06-22T08:21:28;101934.84;;;28.57;40.43
81033;BME280;70514;52.478;6.102;2023-06-22T08:23:55;101934.38;;;28.66;40.39
81033;BME280;70514;52.478;6.102;2023-06-22T08:26:22;101916.84;;;28.64;40.26
81033;BME280;70514;52.478;6.102;2023-06-22T08:28:49;101930.28;;;28.78;40.25
81033;BME280;70514;52.478;6.102;2023-06-22T08:31:16;101936.63;;;28.93;40.46
81033;BME280;70514;52.478;6.102;2023-06-22T08:33:43;101938.72;;;29.03;40.29
81033;BME280;70514;52.478;6.102;2023-06-22T08:36:15;101931.25;;;29.11;40.18
81033;BME280;70514;52.478;6.102;2023-06-22T08:38:42;101929.09;;;29.18;40.25
81033;BME280;70514;52.478;6.102;2023-06-22T08:41:09;101904.38;;;29.17;39.47
81033;BME280;70514;52.478;6.102;2023-06-22T08:43:35;101919.38;;;29.36;39.55
81033;BME280;70514;52.478;6.102;2023-06-22T08:46:02;101917.94;;;29.46;39.51
81033;BME280;70514;52.478;6.102;2023-06-22T08:48:29;101883.00;;;29.38;39.43
81033;BME280;70514;52.478;6.102;2023-06-22T08:50:56;101910.00;;;29.62;39.19
81033;BME280;70514;52.478;6.102;2023-06-22T08:53:22;101899.06;;;29.68;39.44
81033;BME280;70514;52.478;6.102;2023-06-22T08:55:49;101886.72;;;29.67;39.37
81033;BME280;70514;52.478;6.102;2023-06-22T08:58:17;101884.84;;;29.69;39.43
81033;BME280;70514;52.478;6.102;2023-06-22T09:00:44;101878.25;;;29.76;39.01
81033;BME280;70514;52.478;6.102;2023-06-22T09:03:11;101862.91;;;29.65;39.08
81033;BME280;70514;52.478;6.102;2023-06-22T09:05:38;101843.13;;;29.71;39.07
81033;BME280;70514;52.478;6.102;2023-06-22T09:08:05;101882.44;;;29.80;38.90
81033;BME280;70514;52.478;6.102;2023-06-22T09:10:32;101876.44;;;29.76;38.39
81033;BME280;70514;52.478;6.102;2023-06-22T09:12:58;101875.19;;;29.83;38.77
81033;BME280;70514;52.478;6.102;2023-06-22T09:15:25;101877.22;;;29.78;38.56
81033;BME280;70514;52.478;6.102;2023-06-22T09:17:52;101877.38;;;29.75;38.38
81033;BME280;70514;52.478;6.102;2023-06-22T09:20:20;101863.03;;;29.79;38.63
81033;BME280;70514;52.478;6.102;2023-06-22T09:22:47;101871.41;;;29.87;38.88
81033;BME280;70514;52.478;6.102;2023-06-22T09:25:14;101875.22;;;29.99;38.25
81033;BME280;70514;52.478;6.102;2023-06-22T09:27:40;101878.19;;;30.09;38.04
81033;BME280;70514;52.478;6.102;2023-06-22T09:30:07;101865.00;;;30.07;37.79
81033;BME280;70514;52.478;6.102;2023-06-22T09:32:34;101877.06;;;30.13;37.97
81033;BME280;70514;52.478;6.102;2023-06-22T09:35:04;101860.88;;;30.02;38.23
81033;BME280;70514;52.478;6.102;2023-06-22T09:37:32;101883.06;;;30.01;37.87
81033;BME280;70514;52.478;6.102;2023-06-22T09:39:58;101882.13;;;30.02;38.01
81033;BME280;70514;52.478;6.102;2023-06-22T09:42:25;101874.09;;;30.03;37.87
81033;BME280;70514;52.478;6.102;2023-06-22T09:44:52;101858.41;;;29.98;38.02
81033;BME280;70514;52.478;6.102;2023-06-22T09:47:18;101849.91;;;30.08;37.48
81033;BME280;70514;52.478;6.102;2023-06-22T09:49:45;101881.34;;;30.31;37.45
81033;BME280;70514;52.478;6.102;2023-06-22T09:52:14;101841.13;;;30.21;37.56
81033;BME280;70514;52.478;6.102;2023-06-22T09:54:41;101867.59;;;30.38;37.23
81033;BME280;70514;52.478;6.102;2023-06-22T09:57:07;101839.94;;;30.27;37.42
81033;BME280;70514;52.478;6.102;2023-06-22T09:59:34;101838.44;;;30.37;37.23
81033;BME280;70514;52.478;6.102;2023-06-22T10:02:00;101859.81;;;30.51;37.17
81033;BME280;70514;52.478;6.102;2023-06-22T10:04:27;101854.78;;;30.47;37.16
81033;BME280;70514;52.478;6.102;2023-06-22T10:06:54;101843.88;;;30.51;37.00
81033;BME280;70514;52.478;6.102;2023-06-22T10:09:21;101844.53;;;30.39;37.08
81033;BME280;70514;52.478;6.102;2023-06-22T10:11:48;101854.66;;;30.32;37.26
81033;BME280;70514;52.478;6.102;2023-06-22T10:14:14;101857.09;;;30.21;37.19
81033;BME280;70514;52.478;6.102;2023-06-22T10:16:41;101855.63;;;30.16;37.70
81033;BME280;70514;52.478;6.102;2023-06-22T10:19:10;101863.00;;;30.11;37.75
81033;BME280;70514;52.478;6.102;2023-06-22T10:21:36;101860.81;;;30.03;37.97
81033;BME280;70514;52.478;6.102;2023-06-22T10:24:03;101853.97;;;29.99;37.67
81033;BME280;70514;52.478;6.102;2023-06-22T10:26:33;101835.09;;;29.88;37.58
81033;BME280;70514;52.478;6.102;2023-06-22T10:29:02;101857.72;;;29.95;37.19
81033;BME280;70514;52.478;6.102;2023-06-22T10:31:43;101856.88;;;29.94;37.75
81033;BME280;70514;52.478;6.102;2023-06-22T10:34:09;101853.19;;;29.97;37.74
81033;BME280;70514;52.478;6.102;2023-06-22T10:36:36;101845.81;;;30.02;37.20
81033;BME280;70514;52.478;6.102;2023-06-22T10:39:03;101849.31;;;30.03;37.18
81033;BME280;70514;52.478;6.102;2023-06-22T10:41:30;101849.13;;;30.06;36.94
81033;BME280;70514;52.478;6.102;2023-06-22T10:43:58;101849.06;;;30.07;37.00
81033;BME280;70514;52.478;6.102;2023-06-22T10:46:25;101842.28;;;30.17;37.02
81033;BME280;70514;52.478;6.102;2023-06-22T10:48:55;101846.13;;;30.12;36.71
81033;BME280;70514;52.478;6.102;2023-06-22T10:51:24;101855.41;;;30.05;37.39
81033;BME280;70514;52.478;6.102;2023-06-22T10:53:52;101846.06;;;29.97;37.25
81033;BME280;70514;52.478;6.102;2023-06-22T10:56:19;101858.56;;;30.11;37.22
81033;BME280;70514;52.478;6.102;2023-06-22T10:58:46;101848.19;;;30.07;37.37
81033;BME280;70514;52.478;6.102;2023-06-22T11:01:13;101839.53;;;29.87;37.02
81033;BME280;70514;52.478;6.102;2023-06-22T11:03:59;101859.16;;;30.01;37.13
81033;BME280;70514;52.478;6.102;2023-06-22T11:06:27;101845.41;;;29.94;37.37
81033;BME280;70514;52.478;6.102;2023-06-22T11:08:53;101867.25;;;29.99;37.36
81033;BME280;70514;52.478;6.102;2023-06-22T11:11:38;101826.78;;;29.78;37.32
81033;BME280;70514;52.478;6.102;2023-06-22T11:14:05;101822.75;;;29.71;37.31
81033;BME280;70514;52.478;6.102;2023-06-22T11:16:32;101843.38;;;29.82;37.26
81033;BME280;70514;52.478;6.102;2023-06-22T11:18:59;101859.13;;;29.85;37.29
81033;BME280;70514;52.478;6.102;2023-06-22T11:21:27;101857.53;;;29.82;37.46
81033;BME280;70514;52.478;6.102;2023-06-22T11:23:55;101855.81;;;29.81;37.31
81033;BME280;70514;52.478;6.102;2023-06-22T11:26:22;101861.03;;;29.83;37.60
81033;BME280;70514;52.478;6.102;2023-06-22T11:28:49;101847.75;;;29.83;37.52
81033;BME280;70514;52.478;6.102;2023-06-22T11:31:15;101824.53;;;29.71;37.14
81033;BME280;70514;52.478;6.102;2023-06-22T11:33:53;101846.63;;;29.87;37.73
81033;BME280;70514;52.478;6.102;2023-06-22T11:36:20;101842.13;;;29.89;37.75
81033;BME280;70514;52.478;6.102;2023-06-22T11:38:47;101841.03;;;29.93;37.46
81033;BME280;70514;52.478;6.102;2023-06-22T11:41:14;101832.88;;;29.96;37.23
81033;BME280;70514;52.478;6.102;2023-06-22T11:43:41;101828.34;;;29.98;37.20
81033;BME280;70514;52.478;6.102;2023-06-22T11:46:08;101822.16;;;29.97;36.98
81033;BME280;70514;52.478;6.102;2023-06-22T11:48:35;101813.66;;;30.07;37.27
81033;BME280;70514;52.478;6.102;2023-06-22T11:51:03;101819.16;;;30.04;36.84
81033;BME280;70514;52.478;6.102;2023-06-22T11:53:30;101808.19;;;30.10;37.11
81033;BME280;70514;52.478;6.102;2023-06-22T11:55:57;101800.66;;;30.02;37.26
81033;BME280;70514;52.478;6.102;2023-06-22T11:58:24;101798.84;;;30.03;37.05
81033;BME280;70514;52.478;6.102;2023-06-22T12:00:52;101804.94;;;30.05;36.58
81033;BME280;70514;52.478;6.102;2023-06-22T12:03:20;101791.91;;;30.00;36.89
81033;BME280;70514;52.478;6.102;2023-06-22T12:05:50;101783.69;;;30.05;36.94
81033;BME280;70514;52.478;6.102;2023-06-22T12:08:19;101797.72;;;30.07;36.64
81033;BME280;70514;52.478;6.102;2023-06-22T12:10:46;101784.44;;;30.07;37.07
81033;BME280;70514;52.478;6.102;2023-06-22T12:13:14;101755.94;;;29.94;36.75
81033;BME280;70514;52.478;6.102;2023-06-22T12:15:41;101770.28;;;30.06;36.64
81033;BME280;70514;52.478;6.102;2023-06-22T12:18:09;101767.16;;;30.00;36.98
81033;BME280;70514;52.478;6.102;2023-06-22T12:20:36;101761.09;;;30.12;36.34
81033;BME280;70514;52.478;6.102;2023-06-22T12:23:05;101769.44;;;30.06;36.38
81033;BME280;70514;52.478;6.102;2023-06-22T12:25:50;101769.53;;;30.04;36.68
81033;BME280;70514;52.478;6.102;2023-06-22T12:28:17;101770.28;;;30.06;36.59
81033;BME280;70514;52.478;6.102;2023-06-22T12:30:44;101771.16;;;30.07;36.28
81033;BME280;70514;52.478;6.102;2023-06-22T12:33:12;101740.31;;;29.88;36.70
81033;BME280;70514;52.478;6.102;2023-06-22T12:35:39;101756.63;;;29.98;36.77
81033;BME280;70514;52.478;6.102;2023-06-22T12:38:07;101734.13;;;29.89;36.61
81033;BME280;70514;52.478;6.102;2023-06-22T12:40:34;101741.53;;;29.98;36.59
81033;BME280;70514;52.478;6.102;2023-06-22T12:43:01;101759.50;;;30.09;36.84
81033;BME280;70514;52.478;6.102;2023-06-22T12:45:28;101755.44;;;30.18;36.25
81033;BME280;70514;52.478;6.102;2023-06-22T12:47:58;101735.88;;;30.05;36.66
81033;BME280;70514;52.478;6.102;2023-06-22T12:50:26;101752.00;;;30.16;36.60
81033;BME280;70514;52.478;6.102;2023-06-22T12:52:54;101751.06;;;30.17;36.12
81033;BME280;70514;52.478;6.102;2023-06-22T12:55:26;101747.75;;;30.13;36.33
81033;BME280;70514;52.478;6.102;2023-06-22T12:57:53;101745.75;;;30.17;36.82